Terminal Aerodrome Forecast
Issued by NWS Tuscon, AZ

Home | Current Version | Previous Version | Text Only | Print | Product List | Glossary On
Versions: 1 2 3 4 5 6 7 8 9 10 11 12 13 14
000
FTUS45 KTWC 291739
TAFDUG
TAF
KDUG 291739Z 2918/3018 12006KT P6SM BKN100 BKN200
     FM292000 15008KT P6SM VCTS SCT050CB BKN090
      TEMPO 2921/3001 VRB20G35KT 4SM TSRA SCT025 BKN040CB
     FM300100 20007KT P6SM SCT060 BKN090
     FM300400 17006KT P6SM SCT090 SCT120 OVC200
     FM300700 VRB04KT P6SM SCT120 BKN200=

USA.gov is the U.S. government's official web portal to all federal, state and local government web resources and services.